createdAt,value
2019-05-29T00:00:29.863Z,22.16
2019-05-29T00:01:30.124Z,22.22
2019-05-29T00:02:29.449Z,22.14
2019-05-29T00:03:31.202Z,22.22
2019-05-29T00:04:29.354Z,22.27
2019-05-29T00:05:29.308Z,22.27
2019-05-29T00:06:29.275Z,22.28
2019-05-29T00:07:29.242Z,22.25
2019-05-29T00:08:29.176Z,22.31
2019-05-29T00:09:29.154Z,22.17
2019-05-29T00:10:29.087Z,22.23
2019-05-29T00:11:29.039Z,22.20
2019-05-29T00:12:28.996Z,22.25
2019-05-29T00:13:29.018Z,22.23
2019-05-29T00:14:28.949Z,22.29
2019-05-29T00:15:28.987Z,22.20
2019-05-29T00:16:28.818Z,22.20
2019-05-29T00:17:29.294Z,22.25
2019-05-29T00:18:28.744Z,22.20
2019-05-29T00:19:28.688Z,22.22
2019-05-29T00:20:29.065Z,22.17
2019-05-29T00:21:28.593Z,22.17
2019-05-29T00:22:28.558Z,22.23
2019-05-29T00:23:28.841Z,22.23
2019-05-29T00:24:28.935Z,22.16
2019-05-29T00:25:28.411Z,22.20
2019-05-29T00:26:28.659Z,22.19
2019-05-29T00:27:28.321Z,22.17
2019-05-29T00:28:28.295Z,22.17
2019-05-29T00:29:28.378Z,22.13
2019-05-29T00:30:28.190Z,22.19
2019-05-29T00:31:28.143Z,22.23
2019-05-29T00:32:28.098Z,22.16
2019-05-29T00:33:28.054Z,22.16
2019-05-29T00:34:28.330Z,22.13
2019-05-29T00:35:28.192Z,22.10
2019-05-29T00:36:27.924Z,22.07
2019-05-29T00:37:28.306Z,22.12
2019-05-29T00:38:35.510Z,22.07
2019-05-29T00:40:20.672Z,22.13
2019-05-29T00:41:20.720Z,22.13
2019-05-29T00:43:13.507Z,22.12
2019-05-29T00:44:13.349Z,22.13
2019-05-29T00:46:07.270Z,22.13
2019-05-29T00:47:07.356Z,22.10
2019-05-29T00:49:22.934Z,22.09
2019-05-29T00:50:22.926Z,22.12
2019-05-29T00:52:16.618Z,22.07
2019-05-29T00:53:18.405Z,22.04
2019-05-29T00:55:08.797Z,22.10
2019-05-29T00:56:08.554Z,22.04
2019-05-29T00:58:01.213Z,22.10
2019-05-29T00:59:01.212Z,22.04
2019-05-29T01:00:54.025Z,22.02
2019-05-29T01:01:53.960Z,21.98
2019-05-29T01:03:46.692Z,22.06
2019-05-29T01:04:46.657Z,21.99
2019-05-29T01:06:39.862Z,22.01
2019-05-29T01:07:39.811Z,22.02
2019-05-29T01:09:33.023Z,22.01
2019-05-29T01:10:32.965Z,22.04
2019-05-29T01:12:25.782Z,22.04
2019-05-29T01:13:25.781Z,21.99
2019-05-29T01:15:19.569Z,22.02
2019-05-29T01:16:20.243Z,21.98
2019-05-29T01:18:11.780Z,22.01
2019-05-29T01:19:11.855Z,22.07
2019-05-29T01:21:09.038Z,21.98
2019-05-29T01:23:41.977Z,22.04
2019-05-29T01:25:50.010Z,21.99
2019-05-29T01:26:50.743Z,21.92
2019-05-29T01:28:42.846Z,22.01
2019-05-29T01:29:43.163Z,22.02
2019-05-29T01:31:36.074Z,21.99
2019-05-29T01:32:36.061Z,21.91
2019-05-29T01:34:29.159Z,22.01
2019-05-29T01:35:29.382Z,21.98
2019-05-29T01:37:22.379Z,21.91
2019-05-29T01:38:23.517Z,21.95
2019-05-29T01:40:21.115Z,21.97
2019-05-29T01:41:15.767Z,22.02
2019-05-29T01:43:08.806Z,21.98
2019-05-29T01:44:08.850Z,21.98
2019-05-29T01:46:01.542Z,21.99
2019-05-29T01:47:01.464Z,21.98
2019-05-29T01:48:55.737Z,21.94
2019-05-29T01:49:54.204Z,21.97
2019-05-29T01:51:47.027Z,22.01
2019-05-29T01:52:46.948Z,21.88
2019-05-29T01:54:39.807Z,21.98
2019-05-29T01:55:39.971Z,22.01
2019-05-29T01:57:33.714Z,22.04
2019-05-29T01:58:32.892Z,21.97
2019-05-29T02:00:25.753Z,21.91
2019-05-29T02:01:25.631Z,21.98
2019-05-29T02:03:19.777Z,21.97
2019-05-29T02:04:18.377Z,21.91
2019-05-29T02:06:11.195Z,21.91
2019-05-29T02:07:11.119Z,21.97
2019-05-29T02:09:03.907Z,21.95
2019-05-29T02:10:03.862Z,21.92
2019-05-29T02:11:57.250Z,21.95
2019-05-29T02:12:56.601Z,21.85
2019-05-29T02:14:49.409Z,21.90
2019-05-29T02:15:49.359Z,21.82
2019-05-29T02:17:42.177Z,21.88
2019-05-29T02:18:42.103Z,21.94
2019-05-29T02:20:35.408Z,21.88
2019-05-29T02:21:35.335Z,21.82
2019-05-29T02:23:28.350Z,21.81
2019-05-29T02:24:28.078Z,21.81
2019-05-29T02:26:20.881Z,21.82
2019-05-29T02:27:21.476Z,21.81
2019-05-29T02:29:13.706Z,21.78
2019-05-29T02:30:13.608Z,21.79
2019-05-29T02:32:06.405Z,21.92
2019-05-29T02:33:06.612Z,21.79
2019-05-29T02:34:59.124Z,21.76
2019-05-29T02:35:59.070Z,21.78
2019-05-29T02:37:52.141Z,21.79
2019-05-29T02:38:51.823Z,21.75
2019-05-29T02:40:45.626Z,21.83
2019-05-29T02:41:45.571Z,21.83
2019-05-29T02:43:38.404Z,21.82
2019-05-29T02:44:38.319Z,21.81
2019-05-29T02:46:32.199Z,21.82
2019-05-29T02:47:32.043Z,21.90
2019-05-29T02:49:25.758Z,21.90
2019-05-29T02:50:26.607Z,21.76
2019-05-29T02:52:18.101Z,21.88
2019-05-29T02:53:18.062Z,21.74
2019-05-29T02:54:17.995Z,21.79
2019-05-29T02:55:17.969Z,21.79
2019-05-29T02:56:17.832Z,21.74
2019-05-29T02:57:17.821Z,21.78
2019-05-29T02:58:18.040Z,21.76
2019-05-29T02:59:17.729Z,21.78
2019-05-29T03:00:17.681Z,21.76
2019-05-29T03:01:17.614Z,21.79
2019-05-29T03:02:17.608Z,21.72
2019-05-29T03:03:17.975Z,21.63
2019-05-29T03:04:17.526Z,21.64
2019-05-29T03:05:17.437Z,21.79
2019-05-29T03:06:17.708Z,21.67
2019-05-29T03:07:17.422Z,21.71
2019-05-29T03:08:17.385Z,21.64
2019-05-29T03:09:17.254Z,21.63
2019-05-29T03:10:17.247Z,21.64
2019-05-29T03:11:17.410Z,21.76
2019-05-29T03:12:17.134Z,21.78
2019-05-29T03:13:17.098Z,21.74
2019-05-29T03:14:17.025Z,21.71
2019-05-29T03:15:16.983Z,21.69
2019-05-29T03:16:17.062Z,21.69
2019-05-29T03:17:16.903Z,21.67
2019-05-29T03:18:17.176Z,21.71
2019-05-29T03:19:16.822Z,21.64
2019-05-29T03:20:16.753Z,21.64
2019-05-29T03:21:16.728Z,21.67
2019-05-29T03:22:16.684Z,21.71
2019-05-29T03:23:16.626Z,21.66
2019-05-29T03:24:16.596Z,21.61
2019-05-29T03:25:16.619Z,21.61
2019-05-29T03:26:16.493Z,21.66
2019-05-29T03:27:16.443Z,21.61
2019-05-29T03:28:16.395Z,21.59
2019-05-29T03:29:16.755Z,21.54
2019-05-29T03:30:16.308Z,21.61
2019-05-29T03:31:16.267Z,21.60
2019-05-29T03:32:16.563Z,21.61
2019-05-29T03:33:16.170Z,21.59
2019-05-29T03:34:16.131Z,21.59
2019-05-29T03:35:16.094Z,21.54
2019-05-29T03:36:16.041Z,21.54
2019-05-29T03:37:15.987Z,21.61
2019-05-29T03:38:15.976Z,21.46
2019-05-29T03:39:15.900Z,21.59
2019-05-29T03:40:15.854Z,21.46
2019-05-29T03:41:15.847Z,21.54
2019-05-29T03:42:15.793Z,21.51
2019-05-29T03:43:15.720Z,21.57
2019-05-29T03:44:15.869Z,21.56
2019-05-29T03:45:15.644Z,21.59
2019-05-29T03:46:29.982Z,21.53
2019-05-29T03:47:15.541Z,21.56
2019-05-29T03:48:15.490Z,21.63
2019-05-29T03:49:15.454Z,21.54
2019-05-29T03:50:16.091Z,21.59
2019-05-29T03:51:15.418Z,21.64
2019-05-29T03:52:15.328Z,21.59
2019-05-29T03:53:15.283Z,21.54
2019-05-29T03:54:15.247Z,21.48
2019-05-29T03:55:15.189Z,21.51
2019-05-29T03:56:15.133Z,21.46
2019-05-29T03:57:15.088Z,21.53
2019-05-29T03:58:15.042Z,21.54
2019-05-29T03:59:15.255Z,21.46
2019-05-29T04:00:15.026Z,21.57
2019-05-29T04:01:14.905Z,21.53
2019-05-29T04:02:14.862Z,21.50
2019-05-29T04:03:14.880Z,21.60
2019-05-29T04:04:14.770Z,21.53
2019-05-29T04:05:15.031Z,21.57
2019-05-29T04:06:14.726Z,21.50
2019-05-29T04:07:14.680Z,21.56
2019-05-29T04:08:14.599Z,21.46
2019-05-29T04:09:14.557Z,21.50
2019-05-29T04:10:14.720Z,21.45
2019-05-29T04:11:14.669Z,21.50
2019-05-29T04:12:18.814Z,21.46
2019-05-29T04:13:14.378Z,21.44
2019-05-29T04:14:14.363Z,21.48
2019-05-29T04:15:14.369Z,21.51
2019-05-29T04:16:14.250Z,21.48
2019-05-29T04:17:14.713Z,21.51
2019-05-29T04:18:14.137Z,21.54
2019-05-29T04:19:14.194Z,21.46
2019-05-29T04:20:14.049Z,21.50
2019-05-29T04:21:13.995Z,21.46
2019-05-29T04:22:13.956Z,21.44
2019-05-29T04:23:14.046Z,21.45
2019-05-29T04:24:13.869Z,21.45
2019-05-29T04:25:14.247Z,21.44
2019-05-29T04:26:13.815Z,21.45
2019-05-29T04:27:14.275Z,21.45
2019-05-29T04:28:13.684Z,21.41
2019-05-29T04:29:14.831Z,21.45
2019-05-29T04:30:13.594Z,21.48
2019-05-29T04:31:14.581Z,21.48
2019-05-29T04:32:13.878Z,21.51
2019-05-29T04:33:13.461Z,21.46
2019-05-29T04:34:13.476Z,21.50
2019-05-29T04:35:13.381Z,21.46
2019-05-29T04:36:13.335Z,21.51
2019-05-29T04:37:13.286Z,21.46
2019-05-29T04:38:13.254Z,21.56
2019-05-29T04:39:14.250Z,21.50
2019-05-29T04:40:13.201Z,21.56
2019-05-29T04:41:13.123Z,21.51
2019-05-29T04:42:13.059Z,21.54
2019-05-29T04:43:13.175Z,21.60
2019-05-29T04:44:12.968Z,21.60
2019-05-29T04:45:13.021Z,21.54
2019-05-29T04:46:12.877Z,21.61
2019-05-29T04:47:12.975Z,21.57
2019-05-29T04:48:12.783Z,21.66
2019-05-29T04:49:13.138Z,21.71
2019-05-29T04:50:12.697Z,21.69
2019-05-29T04:51:12.647Z,21.69
2019-05-29T04:52:12.610Z,21.69
2019-05-29T04:53:12.575Z,21.71
2019-05-29T04:54:12.516Z,21.74
2019-05-29T04:55:12.489Z,21.75
2019-05-29T04:56:12.576Z,21.78
2019-05-29T04:57:12.374Z,21.78
2019-05-29T04:58:12.347Z,21.76
2019-05-29T04:59:12.309Z,21.78
2019-05-29T05:00:12.247Z,21.79
2019-05-29T05:01:12.195Z,21.92
2019-05-29T05:02:12.141Z,21.94
2019-05-29T05:03:12.106Z,21.95
2019-05-29T05:04:12.513Z,21.90
2019-05-29T05:05:12.383Z,22.02
2019-05-29T05:06:12.023Z,21.99
2019-05-29T05:07:11.930Z,21.97
2019-05-29T05:08:11.873Z,21.98
2019-05-29T05:09:11.830Z,21.95
2019-05-29T05:10:11.842Z,22.01
2019-05-29T05:11:11.755Z,22.04
2019-05-29T05:12:11.712Z,22.04
2019-05-29T05:13:11.668Z,22.07
2019-05-29T05:14:11.653Z,22.07
2019-05-29T05:15:11.563Z,22.09
2019-05-29T05:16:11.529Z,22.07
2019-05-29T05:17:25.209Z,22.02
2019-05-29T05:18:11.424Z,22.13
2019-05-29T05:19:11.381Z,22.09
2019-05-29T05:20:11.337Z,22.13
2019-05-29T05:21:11.291Z,22.09
2019-05-29T05:22:11.310Z,22.17
2019-05-29T05:23:11.381Z,22.19
2019-05-29T05:24:11.165Z,22.22
2019-05-29T05:25:11.111Z,22.22
2019-05-29T05:26:11.066Z,22.22
2019-05-29T05:27:11.229Z,22.20
2019-05-29T05:28:11.157Z,22.27
2019-05-29T05:29:10.930Z,22.28
2019-05-29T05:30:10.896Z,22.17
2019-05-29T05:31:10.841Z,22.31
2019-05-29T05:32:10.801Z,22.28
2019-05-29T05:33:10.755Z,22.31
2019-05-29T05:34:10.714Z,22.32
2019-05-29T05:35:14.249Z,22.35
2019-05-29T05:36:10.666Z,22.43
2019-05-29T05:37:10.836Z,22.39
2019-05-29T05:38:10.521Z,22.41
2019-05-29T05:39:10.547Z,22.47
2019-05-29T05:40:10.434Z,22.44
2019-05-29T05:41:10.416Z,22.43
2019-05-29T05:42:10.533Z,22.46
2019-05-29T05:43:23.231Z,22.37
2019-05-29T05:44:10.278Z,22.37
2019-05-29T05:45:10.522Z,22.49
2019-05-29T05:46:10.330Z,22.39
2019-05-29T05:47:10.118Z,22.39
2019-05-29T05:48:10.074Z,22.46
2019-05-29T05:49:10.026Z,22.44
2019-05-29T05:50:11.271Z,22.38
2019-05-29T05:51:09.942Z,22.38
2019-05-29T05:52:09.895Z,22.44
2019-05-29T05:53:09.849Z,22.49
2019-05-29T05:54:09.806Z,22.44
2019-05-29T05:55:09.758Z,22.38
2019-05-29T05:56:09.728Z,22.39
2019-05-29T05:57:09.668Z,22.43
2019-05-29T05:58:09.624Z,22.46
2019-05-29T05:59:09.580Z,22.41
2019-05-29T06:00:09.583Z,22.44
2019-05-29T06:01:09.490Z,22.52
2019-05-29T06:02:09.446Z,22.43
2019-05-29T06:03:09.406Z,22.52
2019-05-29T06:04:09.360Z,22.54
2019-05-29T06:05:09.311Z,22.54
2019-05-29T06:06:09.269Z,22.53
2019-05-29T06:07:09.221Z,22.50
